Time;durP1;ratioP1;P1;durP2;ratioP2;P2;SDS_P1;SDS_P2;PMS_P1;PMS_P2;Temp;Humidity;BMP_temperature;BMP_pressure;BME280_temperature;BME280_humidity;BME280_pressure;Samples;Min_cycle;Max_cycle;Signal;HPM_P1;HPM_P2
2024/02/16 00:00:59;;;;;;;5.30;2.43;;;11.40;99.90;;;;;;493909;241;28007;-72
2024/02/16 00:03:00;;;;;;;5.30;2.30;;;11.40;99.90;;;;;;493986;241;28222;-73
2024/02/16 00:05:01;;;;;;;3.97;1.70;;;11.40;99.90;;;;;;493968;237;28031;-74
2024/02/16 00:07:03;;;;;;;2.10;1.97;;;11.50;99.90;;;;;;493894;241;28741;-73
2024/02/16 00:09:04;;;;;;;2.20;2.00;;;11.50;99.90;;;;;;493992;241;28681;-73
2024/02/16 00:11:05;;;;;;;3.97;1.80;;;11.60;99.90;;;;;;494023;241;28627;-73
2024/02/16 00:13:06;;;;;;;3.40;1.90;;;11.60;99.90;;;;;;493964;241;28100;-73
2024/02/16 00:15:08;;;;;;;3.50;2.10;;;11.70;99.90;;;;;;493941;241;28193;-73
2024/02/16 00:17:12;;;;;;;4.67;2.10;;;11.70;99.90;;;;;;493888;241;28140;-73
2024/02/16 00:19:10;;;;;;;3.60;1.93;;;11.80;99.90;;;;;;493778;237;28096;-73
2024/02/16 00:21:11;;;;;;;3.70;2.27;;;11.80;99.90;;;;;;493953;241;28258;-76
2024/02/16 00:23:13;;;;;;;2.90;2.00;;;11.90;99.90;;;;;;493912;241;28065;-73
2024/02/16 00:25:15;;;;;;;2.63;2.00;;;12.00;99.90;;;;;;493988;241;28203;-73
2024/02/16 00:27:15;;;;;;;2.57;1.90;;;12.20;99.90;;;;;;493837;241;28223;-73
2024/02/16 00:29:16;;;;;;;4.40;2.10;;;12.30;99.90;;;;;;494000;241;28384;-73
2024/02/16 00:31:19;;;;;;;7.67;2.63;;;12.20;99.90;;;;;;494015;241;28814;-74
2024/02/16 00:33:19;;;;;;;3.13;2.17;;;12.20;99.90;;;;;;493901;241;28601;-73
2024/02/16 00:35:20;;;;;;;3.20;2.23;;;12.10;99.90;;;;;;493981;241;28896;-73
2024/02/16 00:37:21;;;;;;;2.73;2.13;;;12.30;99.90;;;;;;493908;237;28762;-72
2024/02/16 00:39:23;;;;;;;2.53;2.00;;;12.30;99.90;;;;;;494037;241;28287;-73
2024/02/16 00:41:24;;;;;;;3.60;2.17;;;12.30;99.90;;;;;;493989;241;28411;-73
2024/02/16 00:43:25;;;;;;;4.97;2.07;;;12.30;99.90;;;;;;493910;241;28262;-72
2024/02/16 00:45:27;;;;;;;5.70;2.10;;;12.20;99.90;;;;;;493954;241;28279;-73
2024/02/16 00:47:28;;;;;;;3.80;2.40;;;12.20;99.90;;;;;;493905;241;28666;-74
2024/02/16 00:49:29;;;;;;;2.53;2.37;;;12.20;99.90;;;;;;493998;241;28175;-72
2024/02/16 00:51:30;;;;;;;3.33;2.20;;;12.10;99.90;;;;;;493982;241;28392;-73
2024/02/16 00:53:31;;;;;;;5.03;1.87;;;12.10;99.90;;;;;;493956;241;28336;-73
2024/02/16 00:55:33;;;;;;;4.67;2.33;;;12.10;99.90;;;;;;493986;237;28816;-72
2024/02/16 00:57:34;;;;;;;4.57;2.17;;;12.10;99.90;;;;;;493942;241;28631;-74
2024/02/16 00:59:35;;;;;;;5.27;1.90;;;12.10;99.90;;;;;;493978;241;28840;-73
2024/02/16 01:01:36;;;;;;;2.60;1.93;;;12.10;99.90;;;;;;493983;241;28707;-73
2024/02/16 01:03:38;;;;;;;3.83;2.23;;;12.20;99.90;;;;;;493976;241;28188;-72
2024/02/16 01:05:40;;;;;;;3.43;2.50;;;12.10;99.90;;;;;;493998;241;28165;-74
2024/02/16 01:07:42;;;;;;;2.70;2.03;;;12.20;99.90;;;;;;493900;241;28562;-75
2024/02/16 01:09:41;;;;;;;2.13;2.03;;;12.20;99.90;;;;;;493868;241;28450;-72
2024/02/16 01:11:43;;;;;;;2.70;2.00;;;12.20;99.90;;;;;;493959;239;28199;-73
2024/02/16 01:13:44;;;;;;;5.37;2.10;;;12.10;99.90;;;;;;493957;241;28217;-75
2024/02/16 01:15:45;;;;;;;2.50;2.10;;;12.10;99.90;;;;;;493986;241;28299;-72
2024/02/16 01:17:46;;;;;;;3.13;2.03;;;12.10;99.90;;;;;;493899;237;28180;-73
2024/02/16 01:19:48;;;;;;;2.90;2.20;;;12.10;99.90;;;;;;493957;241;28929;-73
2024/02/16 01:21:52;;;;;;;3.00;2.33;;;12.10;99.90;;;;;;493913;241;28760;-73
2024/02/16 01:23:50;;;;;;;12.87;8.27;;;12.20;99.90;;;;;;493709;241;28689;-75
2024/02/16 01:25:51;;;;;;;6.13;3.53;;;12.20;99.90;;;;;;493973;241;28328;-73
2024/02/16 01:27:53;;;;;;;4.53;2.43;;;12.20;99.90;;;;;;493896;241;28099;-73
2024/02/16 01:29:54;;;;;;;3.17;2.47;;;12.20;99.90;;;;;;493903;241;28163;-73
2024/02/16 01:31:55;;;;;;;5.00;2.77;;;12.20;99.90;;;;;;493955;241;28311;-73
2024/02/16 01:33:56;;;;;;;3.47;2.00;;;12.20;99.90;;;;;;493958;241;28355;-74
2024/02/16 01:35:58;;;;;;;2.40;2.00;;;12.30;99.90;;;;;;493954;241;28185;-73
2024/02/16 01:37:59;;;;;;;3.43;2.33;;;12.30;99.90;;;;;;493873;241;28301;-73
2024/02/16 01:40:02;;;;;;;1.97;1.70;;;12.30;99.90;;;;;;493958;241;28406;-73
2024/02/16 01:42:01;;;;;;;3.70;2.23;;;12.20;99.90;;;;;;493848;237;28752;-73
2024/02/16 01:44:03;;;;;;;2.67;2.20;;;12.20;99.90;;;;;;493959;241;28674;-73
2024/02/16 01:46:05;;;;;;;3.10;2.23;;;12.20;99.90;;;;;;493926;241;28614;-76
2024/02/16 01:48:05;;;;;;;2.50;2.07;;;12.20;99.90;;;;;;493874;241;28432;-72
2024/02/16 01:50:07;;;;;;;3.30;2.30;;;12.10;99.90;;;;;;493983;241;28281;-75
2024/02/16 01:52:08;;;;;;;2.20;2.00;;;12.10;99.90;;;;;;493980;241;28188;-73
2024/02/16 01:54:09;;;;;;;3.60;2.30;;;12.10;99.90;;;;;;493925;241;28426;-73
2024/02/16 01:56:10;;;;;;;5.60;2.33;;;12.20;99.90;;;;;;493873;241;28483;-73
2024/02/16 01:58:11;;;;;;;2.80;2.13;;;12.20;99.90;;;;;;493930;241;28212;-72
2024/02/16 02:00:14;;;;;;;3.23;1.93;;;12.10;99.90;;;;;;493972;241;28369;-74
2024/02/16 02:02:14;;;;;;;3.63;2.40;;;12.20;99.90;;;;;;493842;241;28249;-73
2024/02/16 02:04:15;;;;;;;3.70;2.00;;;12.20;99.90;;;;;;493928;241;28611;-73
2024/02/16 02:06:16;;;;;;;4.93;2.67;;;12.20;99.90;;;;;;493888;241;29570;-72
2024/02/16 02:08:18;;;;;;;2.60;2.17;;;12.10;99.90;;;;;;493940;241;28931;-72
2024/02/16 02:10:19;;;;;;;2.63;2.27;;;12.10;99.90;;;;;;493914;237;28311;-74
2024/02/16 02:12:20;;;;;;;3.90;2.27;;;12.10;99.90;;;;;;493866;241;28152;-72
2024/02/16 02:14:22;;;;;;;3.30;2.20;;;12.00;99.90;;;;;;493902;238;28277;-73
2024/02/16 02:16:23;;;;;;;3.33;2.20;;;12.10;99.90;;;;;;493926;238;28324;-73
2024/02/16 02:18:25;;;;;;;3.00;2.10;;;12.10;99.90;;;;;;493960;241;28228;-73
2024/02/16 02:20:26;;;;;;;3.30;2.20;;;12.10;99.90;;;;;;493945;241;28270;-73
2024/02/16 02:22:28;;;;;;;4.03;2.30;;;12.00;99.90;;;;;;493967;241;28193;-73
2024/02/16 02:24:29;;;;;;;3.03;2.30;;;12.10;99.90;;;;;;493969;241;28385;-75
2024/02/16 02:26:30;;;;;;;3.83;2.30;;;12.00;99.90;;;;;;493878;241;28054;-73
2024/02/16 02:28:34;;;;;;;3.37;2.33;;;12.00;99.90;;;;;;493926;237;28568;-73
2024/02/16 02:30:33;;;;;;;2.57;2.13;;;12.00;99.90;;;;;;493758;241;28276;-73
2024/02/16 02:32:34;;;;;;;2.57;2.30;;;11.90;99.90;;;;;;493965;241;28481;-73
2024/02/16 02:34:38;;;;;;;2.40;1.83;;;12.00;99.90;;;;;;493974;241;28820;-73
2024/02/16 02:36:37;;;;;;;3.13;2.37;;;12.00;99.90;;;;;;493633;241;28821;-73
2024/02/16 02:38:38;;;;;;;3.70;2.60;;;11.90;99.90;;;;;;493936;241;28820;-74
2024/02/16 02:40:39;;;;;;;5.87;2.57;;;12.00;99.90;;;;;;493994;241;28214;-72
2024/02/16 02:42:40;;;;;;;6.97;2.60;;;11.90;99.90;;;;;;493962;241;28324;-74
2024/02/16 02:44:49;;;;;;;4.20;2.30;;;11.90;99.90;;;;;;493860;241;28350;-73
2024/02/16 02:46:43;;;;;;;3.37;2.30;;;11.90;99.90;;;;;;493285;241;28281;-73
2024/02/16 02:48:44;;;;;;;3.00;2.23;;;11.90;99.90;;;;;;493907;241;28368;-73
2024/02/16 02:50:45;;;;;;;5.30;2.30;;;11.80;99.90;;;;;;493993;241;28354;-74
2024/02/16 02:52:47;;;;;;;6.00;2.67;;;11.90;99.90;;;;;;493950;241;28271;-73
2024/02/16 02:54:48;;;;;;;5.20;2.10;;;11.90;99.90;;;;;;493952;241;28105;-73
2024/02/16 02:56:49;;;;;;;5.10;2.30;;;11.90;99.90;;;;;;493873;241;28186;-73
2024/02/16 02:58:50;;;;;;;2.67;2.17;;;11.80;99.90;;;;;;493990;241;28396;-73
2024/02/16 03:00:52;;;;;;;3.10;2.20;;;11.80;99.90;;;;;;493952;241;28442;-73
2024/02/16 03:02:53;;;;;;;3.67;2.77;;;11.80;99.90;;;;;;493929;241;28478;-73
2024/02/16 03:04:54;;;;;;;4.23;2.70;;;11.90;99.90;;;;;;493928;241;28794;-73
2024/02/16 03:06:55;;;;;;;2.70;2.37;;;11.90;99.90;;;;;;493927;241;29057;-74
2024/02/16 03:08:57;;;;;;;3.67;2.67;;;11.80;99.90;;;;;;494001;241;28187;-72
2024/02/16 03:11:02;;;;;;;3.03;2.43;;;11.80;99.90;;;;;;493965;241;28393;-73
2024/02/16 03:12:59;;;;;;;3.73;2.57;;;11.80;99.90;;;;;;493686;241;28234;-72
2024/02/16 03:15:00;;;;;;;2.87;2.10;;;11.80;99.90;;;;;;494000;241;28177;-73
2024/02/16 03:17:03;;;;;;;6.60;2.07;;;11.80;99.90;;;;;;493988;241;28242;-74
2024/02/16 03:19:03;;;;;;;2.43;2.10;;;11.70;99.90;;;;;;493849;241;28182;-73
2024/02/16 03:21:04;;;;;;;2.80;2.17;;;11.80;99.90;;;;;;493984;241;28289;-72
2024/02/16 03:23:05;;;;;;;2.60;2.40;;;11.80;99.90;;;;;;493989;241;28299;-72
2024/02/16 03:25:07;;;;;;;3.50;2.10;;;11.80;99.90;;;;;;493986;237;28431;-73
2024/02/16 03:27:08;;;;;;;3.87;2.17;;;11.80;99.90;;;;;;493948;241;28758;-74
2024/02/16 03:29:09;;;;;;;2.50;2.20;;;11.80;99.90;;;;;;494004;241;28955;-72
2024/02/16 03:31:10;;;;;;;2.70;2.20;;;11.80;99.90;;;;;;493991;241;28886;-73
2024/02/16 03:33:12;;;;;;;2.47;1.90;;;11.90;99.90;;;;;;493987;241;29043;-72
2024/02/16 03:35:13;;;;;;;2.67;2.20;;;11.90;99.90;;;;;;494008;241;28186;-73
2024/02/16 03:37:15;;;;;;;2.77;2.20;;;11.90;99.90;;;;;;493864;241;28433;-73
2024/02/16 03:39:19;;;;;;;2.40;2.20;;;11.90;99.90;;;;;;493843;237;28273;-72
2024/02/16 03:41:17;;;;;;;4.03;2.17;;;11.90;99.90;;;;;;493563;241;28317;-73
2024/02/16 03:43:18;;;;;;;3.27;2.30;;;11.90;99.90;;;;;;494000;241;28717;-74
2024/02/16 03:45:19;;;;;;;2.10;1.90;;;11.90;99.90;;;;;;493964;241;28398;-72
2024/02/16 03:47:20;;;;;;;2.40;2.00;;;11.90;99.90;;;;;;493921;241;28434;-73
2024/02/16 03:49:22;;;;;;;3.90;2.40;;;11.90;99.90;;;;;;493916;241;28567;-73
2024/02/16 03:51:23;;;;;;;6.03;2.50;;;11.90;99.90;;;;;;493987;241;28537;-72
2024/02/16 03:53:24;;;;;;;3.13;2.17;;;11.90;99.90;;;;;;493979;241;28998;-74
2024/02/16 03:55:25;;;;;;;3.43;2.30;;;12.00;99.90;;;;;;493955;241;28589;-73
2024/02/16 03:57:27;;;;;;;3.03;2.30;;;12.00;99.90;;;;;;493928;241;28316;-73
2024/02/16 03:59:28;;;;;;;3.70;2.37;;;11.90;99.90;;;;;;493960;241;28357;-72
2024/02/16 04:01:30;;;;;;;5.10;2.40;;;11.90;99.90;;;;;;494005;241;28312;-72
2024/02/16 04:03:31;;;;;;;3.97;2.40;;;11.90;99.90;;;;;;493957;241;28441;-74
2024/02/16 04:05:33;;;;;;;9.57;2.43;;;11.80;99.90;;;;;;493945;241;28207;-73
2024/02/16 04:07:33;;;;;;;2.20;1.90;;;11.80;99.90;;;;;;493814;241;28192;-72
2024/02/16 04:09:34;;;;;;;3.10;1.90;;;11.80;99.90;;;;;;493903;241;28343;-74
2024/02/16 04:11:35;;;;;;;3.47;2.40;;;11.90;99.90;;;;;;493965;241;28872;-73
2024/02/16 04:13:37;;;;;;;6.80;2.13;;;11.80;99.90;;;;;;493936;241;28792;-74
2024/02/16 04:15:38;;;;;;;4.23;2.27;;;11.80;99.90;;;;;;493950;241;28739;-73
2024/02/16 04:17:39;;;;;;;2.47;2.27;;;11.80;99.90;;;;;;493899;241;28308;-73
2024/02/16 04:19:40;;;;;;;2.87;2.10;;;11.80;99.90;;;;;;493996;241;28193;-74
2024/02/16 04:21:42;;;;;;;4.23;2.17;;;11.80;99.90;;;;;;493981;241;28239;-73
2024/02/16 04:23:43;;;;;;;2.43;2.10;;;11.80;99.90;;;;;;493920;241;28200;-73
2024/02/16 04:25:44;;;;;;;2.40;2.20;;;11.80;99.90;;;;;;493945;241;28365;-72
2024/02/16 04:27:46;;;;;;;4.33;2.43;;;11.80;99.90;;;;;;493959;241;28219;-73
2024/02/16 04:29:47;;;;;;;3.13;2.20;;;11.80;99.90;;;;;;493973;241;28238;-73
2024/02/16 04:31:48;;;;;;;4.87;2.10;;;11.80;99.90;;;;;;493968;241;28164;-73
2024/02/16 04:33:49;;;;;;;3.90;2.43;;;11.80;99.90;;;;;;493930;241;28428;-73
2024/02/16 04:35:50;;;;;;;3.47;2.03;;;11.80;99.90;;;;;;493978;241;29419;-72
2024/02/16 04:37:52;;;;;;;1.90;1.80;;;11.80;99.90;;;;;;493955;241;28899;-73
2024/02/16 04:39:54;;;;;;;2.93;2.00;;;;;;;;;;493936;241;28613;-73
2024/02/16 04:41:55;;;;;;;2.77;1.97;;;11.80;99.90;;;;;;493911;241;27286;-73
2024/02/16 04:43:57;;;;;;;3.10;2.20;;;11.80;99.90;;;;;;493858;241;28209;-72
2024/02/16 04:45:59;;;;;;;2.83;2.20;;;11.80;99.90;;;;;;493975;241;28451;-73
2024/02/16 04:47:59;;;;;;;4.97;2.43;;;11.80;99.90;;;;;;493831;237;28722;-73
2024/02/16 04:50:00;;;;;;;3.60;2.03;;;11.80;99.90;;;;;;493927;241;28814;-73
2024/02/16 04:52:02;;;;;;;2.83;2.13;;;11.80;99.90;;;;;;493952;241;28963;-73
2024/02/16 04:54:03;;;;;;;4.43;2.30;;;11.80;99.90;;;;;;493928;241;28368;-75
2024/02/16 04:56:04;;;;;;;4.00;2.20;;;11.80;99.90;;;;;;493948;241;28192;-78
2024/02/16 04:58:09;;;;;;;2.23;1.93;;;11.80;99.90;;;;;;493925;241;28424;-73
2024/02/16 05:00:09;;;;;;;4.60;1.87;;;11.80;99.90;;;;;;493631;241;28292;-72
2024/02/16 05:02:08;;;;;;;1.90;1.80;;;11.70;99.90;;;;;;493787;241;28319;-73
2024/02/16 05:04:09;;;;;;;3.10;2.30;;;11.70;99.90;;;;;;493983;241;28565;-73
2024/02/16 05:06:11;;;;;;;2.27;2.07;;;11.60;99.90;;;;;;493931;241;28331;-72
2024/02/16 05:08:12;;;;;;;2.40;2.03;;;11.60;99.90;;;;;;493883;241;28428;-73
2024/02/16 05:10:13;;;;;;;3.70;2.27;;;11.60;99.90;;;;;;493946;241;28431;-72
2024/02/16 05:12:14;;;;;;;2.77;2.23;;;11.60;99.90;;;;;;493992;237;28868;-72
2024/02/16 05:14:15;;;;;;;3.70;2.40;;;11.50;99.90;;;;;;493954;241;28713;-74
2024/02/16 05:16:17;;;;;;;4.33;2.40;;;11.50;99.90;;;;;;493903;241;28490;-72
2024/02/16 05:18:18;;;;;;;5.07;2.20;;;11.50;99.90;;;;;;493907;241;28806;-73
2024/02/16 05:20:19;;;;;;;2.20;1.87;;;11.50;99.90;;;;;;493995;241;28376;-72
2024/02/16 05:22:24;;;;;;;2.67;1.97;;;11.50;99.90;;;;;;493953;241;28251;-72
2024/02/16 05:24:22;;;;;;;2.10;1.90;;;11.50;99.90;;;;;;493748;241;28094;-73
2024/02/16 05:26:23;;;;;;;2.17;1.70;;;11.40;99.90;;;;;;493875;241;28352;-72
2024/02/16 05:28:24;;;;;;;3.30;2.00;;;11.50;99.90;;;;;;493889;241;28020;-73
2024/02/16 05:30:26;;;;;;;3.37;2.17;;;11.40;99.90;;;;;;493971;241;28532;-75
2024/02/16 05:32:27;;;;;;;2.97;2.23;;;11.50;99.90;;;;;;493956;241;27937;-73
2024/02/16 05:34:32;;;;;;;5.10;2.33;;;11.50;99.90;;;;;;493945;241;28099;-73
2024/02/16 05:36:35;;;;;;;3.00;2.00;;;11.50;99.90;;;;;;493563;237;29887;-72
2024/02/16 05:38:40;;;;;;;4.77;2.33;;;11.50;99.90;;;;;;493512;241;28510;-73
2024/02/16 05:40:45;;;;;;;2.53;2.03;;;11.50;99.90;;;;;;493430;241;28184;-72
2024/02/16 05:42:36;;;;;;;2.30;2.10;;;11.50;99.90;;;;;;493143;241;28132;-71
2024/02/16 05:44:37;;;;;;;8.27;2.50;;;11.50;99.90;;;;;;493920;241;28241;-73
2024/02/16 05:46:39;;;;;;;4.50;2.27;;;11.40;99.90;;;;;;493926;241;28430;-73
2024/02/16 05:48:40;;;;;;;3.00;2.37;;;11.40;99.90;;;;;;493978;241;28130;-75
2024/02/16 05:50:43;;;;;;;2.90;2.07;;;11.40;99.90;;;;;;493985;241;28489;-73
2024/02/16 05:52:42;;;;;;;2.03;1.90;;;11.30;99.90;;;;;;493827;241;28438;-74
2024/02/16 05:54:44;;;;;;;3.00;2.30;;;11.30;99.90;;;;;;493958;241;28531;-74
2024/02/16 05:56:45;;;;;;;2.40;1.93;;;11.30;99.90;;;;;;493976;241;28328;-71
2024/02/16 05:58:50;;;;;;;2.33;2.10;;;11.30;99.90;;;;;;494003;241;28141;-74
2024/02/16 06:00:48;;;;;;;2.30;2.10;;;11.40;99.90;;;;;;493701;241;28046;-73
2024/02/16 06:02:49;;;;;;;4.70;2.20;;;11.40;99.90;;;;;;493924;237;28208;-73
2024/02/16 06:04:50;;;;;;;3.10;2.07;;;11.40;99.90;;;;;;493985;237;28142;-73
2024/02/16 06:06:52;;;;;;;13.57;2.37;;;11.40;99.90;;;;;;493956;241;28049;-73
2024/02/16 06:08:52;;;;;;;4.13;2.37;;;11.40;99.90;;;;;;493918;241;28123;-74
2024/02/16 06:10:54;;;;;;;3.20;2.30;;;11.40;99.90;;;;;;493933;241;27959;-73
2024/02/16 06:12:55;;;;;;;6.33;2.30;;;11.40;99.90;;;;;;493922;241;28787;-73
2024/02/16 06:14:57;;;;;;;4.10;2.93;;;11.40;99.90;;;;;;493974;241;28102;-76
2024/02/16 06:16:57;;;;;;;2.27;2.00;;;11.40;99.90;;;;;;493894;241;28082;-73
2024/02/16 06:18:59;;;;;;;6.83;4.90;;;11.40;99.90;;;;;;493971;241;28086;-74
2024/02/16 06:21:00;;;;;;;4.27;3.00;;;11.40;99.90;;;;;;493933;241;28047;-73
2024/02/16 06:23:01;;;;;;;6.50;2.60;;;11.40;99.90;;;;;;493976;241;28170;-73
2024/02/16 06:25:02;;;;;;;3.87;2.20;;;11.40;99.90;;;;;;493990;237;28114;-74
2024/02/16 06:27:04;;;;;;;2.63;2.40;;;11.40;99.90;;;;;;493875;241;28067;-73
2024/02/16 06:29:05;;;;;;;2.20;2.10;;;11.40;99.90;;;;;;493787;241;28348;-74
2024/02/16 06:31:06;;;;;;;3.40;2.83;;;11.40;99.90;;;;;;493868;237;28918;-73
2024/02/16 06:33:07;;;;;;;2.87;2.33;;;11.40;99.90;;;;;;493955;241;28476;-73
2024/02/16 06:35:09;;;;;;;3.37;2.03;;;11.40;99.90;;;;;;493978;241;28783;-74
2024/02/16 06:37:10;;;;;;;4.20;2.40;;;11.30;99.90;;;;;;493951;241;28636;-73
2024/02/16 06:39:11;;;;;;;4.00;2.20;;;11.30;99.90;;;;;;493889;241;28089;-73
2024/02/16 06:41:12;;;;;;;2.33;2.00;;;11.30;99.90;;;;;;493976;241;28139;-75
2024/02/16 06:43:14;;;;;;;4.83;2.60;;;11.30;99.90;;;;;;493982;241;28115;-73
2024/02/16 06:45:15;;;;;;;5.80;2.40;;;11.30;99.90;;;;;;493831;241;28188;-73
2024/02/16 06:47:16;;;;;;;4.27;2.50;;;11.30;99.90;;;;;;493891;241;28140;-73
2024/02/16 06:49:17;;;;;;;2.50;2.20;;;11.30;99.90;;;;;;493943;241;28083;-73
2024/02/16 06:51:19;;;;;;;3.30;2.20;;;11.30;99.90;;;;;;493956;241;28270;-74
2024/02/16 06:53:20;;;;;;;3.43;2.37;;;11.20;99.90;;;;;;493965;241;28189;-72
2024/02/16 06:55:21;;;;;;;6.63;2.43;;;11.20;99.90;;;;;;493920;241;28770;-72
2024/02/16 06:57:25;;;;;;;4.67;2.03;;;11.20;99.90;;;;;;493871;241;28706;-73
2024/02/16 06:59:24;;;;;;;4.13;2.57;;;11.10;99.90;;;;;;493809;241;28592;-73
2024/02/16 07:01:27;;;;;;;2.37;2.03;;;11.20;99.90;;;;;;493954;241;28576;-74
2024/02/16 07:03:27;;;;;;;2.90;2.40;;;11.10;99.90;;;;;;493775;241;28072;-73
2024/02/16 07:05:28;;;;;;;4.67;2.40;;;11.10;99.90;;;;;;493884;241;28331;-73
2024/02/16 07:07:29;;;;;;;3.30;2.43;;;11.10;99.90;;;;;;493924;241;28287;-73
2024/02/16 07:09:30;;;;;;;3.07;2.33;;;11.20;99.90;;;;;;493960;237;28304;-72
2024/02/16 07:11:31;;;;;;;2.80;2.40;;;11.20;99.90;;;;;;493944;241;28175;-73
2024/02/16 07:13:33;;;;;;;4.37;2.47;;;11.20;99.90;;;;;;493919;241;28237;-72
2024/02/16 07:15:34;;;;;;;1.97;1.77;;;11.20;99.90;;;;;;493903;241;28330;-72
2024/02/16 07:17:36;;;;;;;4.40;2.47;;;11.20;99.90;;;;;;493954;241;28442;-76
2024/02/16 07:19:37;;;;;;;6.23;2.13;;;11.20;99.90;;;;;;493866;241;28087;-72
2024/02/16 07:21:37;;;;;;;4.63;2.50;;;11.30;99.90;;;;;;493901;241;28176;-73
2024/02/16 07:23:39;;;;;;;3.43;2.40;;;11.20;99.90;;;;;;493910;241;28172;-73
2024/02/16 07:25:40;;;;;;;3.37;2.30;;;11.30;99.90;;;;;;493948;241;28185;-72
2024/02/16 07:27:41;;;;;;;3.40;2.17;;;11.30;99.90;;;;;;493920;241;28858;-73
2024/02/16 07:29:42;;;;;;;2.57;2.13;;;11.30;99.90;;;;;;493944;241;28580;-72
2024/02/16 07:31:44;;;;;;;2.33;2.13;;;11.40;99.90;;;;;;493891;241;28808;-73
2024/02/16 07:33:45;;;;;;;2.63;2.30;;;11.40;99.90;;;;;;493948;241;28980;-73
2024/02/16 07:35:46;;;;;;;2.60;2.03;;;11.40;99.90;;;;;;493939;241;28159;-72
2024/02/16 07:37:48;;;;;;;3.60;2.30;;;11.40;99.90;;;;;;493917;241;28177;-73
2024/02/16 07:39:49;;;;;;;4.13;2.30;;;11.50;99.90;;;;;;493921;237;28150;-72
2024/02/16 07:41:50;;;;;;;3.53;2.30;;;11.50;99.90;;;;;;493905;241;28300;-73
2024/02/16 07:43:52;;;;;;;3.00;2.67;;;;;;;;;;493978;241;28692;-73
2024/02/16 07:45:54;;;;;;;2.93;2.40;;;11.50;99.90;;;;;;493947;241;27224;-73
2024/02/16 07:47:55;;;;;;;5.23;2.00;;;11.60;99.90;;;;;;493856;241;28042;-73
2024/02/16 07:49:56;;;;;;;7.83;2.37;;;11.60;99.90;;;;;;493900;241;28059;-73
2024/02/16 07:51:57;;;;;;;3.80;2.37;;;11.60;99.90;;;;;;493895;241;28256;-76
2024/02/16 07:53:59;;;;;;;3.13;2.20;;;11.60;99.90;;;;;;493944;241;28296;-72
2024/02/16 07:56:00;;;;;;;4.13;2.23;;;11.70;99.90;;;;;;493952;241;28507;-73
2024/02/16 07:58:01;;;;;;;2.20;2.00;;;11.70;99.90;;;;;;493888;241;28368;-73
2024/02/16 08:00:03;;;;;;;4.13;2.40;;;11.70;99.90;;;;;;493966;241;28432;-73
2024/02/16 08:02:04;;;;;;;4.13;2.30;;;11.70;99.90;;;;;;493997;241;28092;-73
2024/02/16 08:04:05;;;;;;;3.30;1.87;;;11.70;99.90;;;;;;493945;241;28738;-73
2024/02/16 08:06:06;;;;;;;3.10;2.30;;;11.70;99.90;;;;;;493921;241;28652;-73
2024/02/16 08:08:07;;;;;;;4.60;2.40;;;11.60;99.90;;;;;;493941;241;30609;-73
2024/02/16 08:10:09;;;;;;;6.80;2.13;;;11.60;99.90;;;;;;493958;241;28515;-72
2024/02/16 08:12:10;;;;;;;4.80;2.30;;;11.60;99.90;;;;;;493934;241;28117;-74
2024/02/16 08:14:11;;;;;;;2.80;2.20;;;11.60;99.90;;;;;;493965;241;28282;-72
2024/02/16 08:16:12;;;;;;;2.30;2.10;;;11.60;99.90;;;;;;493882;241;28356;-73
2024/02/16 08:18:14;;;;;;;2.47;2.20;;;11.60;99.90;;;;;;493940;241;28586;-74
2024/02/16 08:20:15;;;;;;;2.63;2.30;;;11.60;99.90;;;;;;493926;241;28278;-73
2024/02/16 08:22:16;;;;;;;3.63;2.70;;;11.50;99.90;;;;;;493944;241;28257;-73
2024/02/16 08:24:17;;;;;;;3.93;2.50;;;11.50;99.90;;;;;;493931;237;28257;-72
2024/02/16 08:26:19;;;;;;;3.00;2.40;;;11.50;99.90;;;;;;493920;241;28323;-73
2024/02/16 08:28:20;;;;;;;2.10;1.93;;;11.50;99.90;;;;;;493991;241;28703;-75
2024/02/16 08:30:22;;;;;;;3.20;1.97;;;11.60;99.90;;;;;;493933;241;28667;-72
2024/02/16 08:32:22;;;;;;;5.63;2.33;;;11.60;99.90;;;;;;493956;241;28749;-73
2024/02/16 08:34:26;;;;;;;2.60;2.03;;;11.60;99.90;;;;;;493987;241;28777;-73
2024/02/16 08:36:29;;;;;;;3.47;2.13;;;11.60;99.90;;;;;;493830;241;28334;-72
2024/02/16 08:38:26;;;;;;;2.90;2.40;;;11.60;99.90;;;;;;493694;241;28121;-74
2024/02/16 08:40:28;;;;;;;3.37;2.03;;;11.60;99.90;;;;;;493957;241;28261;-73
2024/02/16 08:42:29;;;;;;;5.30;2.37;;;11.60;99.90;;;;;;493914;241;28204;-73
2024/02/16 08:44:30;;;;;;;3.70;2.87;;;11.60;99.90;;;;;;493994;237;28712;-74
2024/02/16 08:46:32;;;;;;;3.07;2.40;;;11.70;99.90;;;;;;493932;241;28367;-72
2024/02/16 08:48:32;;;;;;;3.80;2.30;;;11.70;99.90;;;;;;493945;241;28234;-73
2024/02/16 08:50:34;;;;;;;3.67;2.50;;;11.70;99.90;;;;;;493927;241;28277;-72
2024/02/16 08:52:35;;;;;;;2.97;2.23;;;11.70;99.90;;;;;;493915;241;28824;-73
2024/02/16 08:54:36;;;;;;;2.20;1.97;;;11.80;99.90;;;;;;494002;241;28725;-75
2024/02/16 08:56:39;;;;;;;4.77;2.90;;;11.70;99.90;;;;;;493939;241;28139;-73
2024/02/16 08:58:39;;;;;;;5.93;2.77;;;11.70;99.90;;;;;;493854;241;28382;-73
2024/02/16 09:00:40;;;;;;;2.17;2.00;;;11.70;99.90;;;;;;493917;241;28503;-73
2024/02/16 09:02:41;;;;;;;3.97;2.60;;;11.70;99.90;;;;;;493973;241;28346;-72
2024/02/16 09:04:43;;;;;;;2.97;2.07;;;11.70;99.90;;;;;;493962;241;28341;-73
2024/02/16 09:06:44;;;;;;;5.13;2.90;;;11.60;99.90;;;;;;493954;241;28729;-73
2024/02/16 09:08:45;;;;;;;3.40;2.30;;;11.70;99.90;;;;;;493939;241;28890;-73
2024/02/16 09:10:46;;;;;;;4.20;2.80;;;11.60;99.90;;;;;;493977;241;29065;-72
2024/02/16 09:12:48;;;;;;;2.40;2.20;;;11.70;99.90;;;;;;493965;241;28362;-72
2024/02/16 09:14:49;;;;;;;7.40;3.00;;;11.70;99.90;;;;;;493928;241;28395;-73
2024/02/16 09:16:53;;;;;;;5.07;2.27;;;11.70;99.90;;;;;;493928;241;28176;-73
2024/02/16 09:18:54;;;;;;;4.53;2.80;;;11.70;99.90;;;;;;493979;241;28287;-72
2024/02/16 09:20:55;;;;;;;4.23;2.50;;;11.70;99.90;;;;;;493996;241;28308;-73
2024/02/16 09:22:57;;;;;;;5.50;2.90;;;11.70;99.90;;;;;;494017;241;28357;-73
2024/02/16 09:24:59;;;;;;;5.67;2.50;;;11.70;99.90;;;;;;494023;241;28834;-73
2024/02/16 09:27:04;;;;;;;3.73;2.70;;;11.80;99.90;;;;;;493838;241;28889;-73
2024/02/16 09:29:00;;;;;;;4.40;2.60;;;11.80;99.90;;;;;;493558;241;29638;-73
2024/02/16 09:31:02;;;;;;;5.30;2.90;;;11.80;99.90;;;;;;493988;241;28829;-73
2024/02/16 09:33:03;;;;;;;5.70;2.70;;;11.80;99.90;;;;;;493967;241;28307;-74
2024/02/16 09:35:04;;;;;;;2.93;2.30;;;11.90;99.90;;;;;;493965;241;28374;-73
2024/02/16 09:37:05;;;;;;;4.23;2.30;;;12.00;99.90;;;;;;493930;241;28261;-72
2024/02/16 09:39:07;;;;;;;4.70;2.30;;;12.00;99.90;;;;;;494002;241;28449;-73
2024/02/16 09:41:08;;;;;;;4.50;2.70;;;12.10;99.90;;;;;;493998;241;28276;-72
2024/02/16 09:43:09;;;;;;;3.80;2.43;;;12.10;99.90;;;;;;493983;241;28250;-73
2024/02/16 09:45:11;;;;;;;4.33;2.43;;;12.10;99.90;;;;;;493862;241;28290;-72
2024/02/16 09:47:12;;;;;;;3.33;2.70;;;12.20;99.90;;;;;;493887;241;28606;-72
2024/02/16 09:49:13;;;;;;;5.43;3.03;;;12.30;99.90;;;;;;494012;241;28638;-74
2024/02/16 09:51:15;;;;;;;3.60;2.80;;;12.40;99.90;;;;;;493984;241;28774;-73
2024/02/16 09:53:15;;;;;;;5.00;2.53;;;12.50;99.90;;;;;;493914;241;28554;-73
2024/02/16 09:55:17;;;;;;;3.33;2.40;;;12.60;99.90;;;;;;493942;241;28722;-73
2024/02/16 09:57:18;;;;;;;13.53;2.90;;;12.70;99.90;;;;;;493951;241;28823;-73
2024/02/16 09:59:19;;;;;;;3.70;2.70;;;12.80;99.90;;;;;;493998;237;28434;-73
2024/02/16 10:01:20;;;;;;;4.50;2.60;;;12.90;99.90;;;;;;493952;241;28627;-73
2024/02/16 10:03:22;;;;;;;7.33;2.97;;;12.90;99.90;;;;;;493960;241;28373;-73
2024/02/16 10:05:23;;;;;;;3.00;2.60;;;13.00;99.90;;;;;;493953;237;28855;-73
2024/02/16 10:07:24;;;;;;;9.50;2.60;;;13.00;99.90;;;;;;493957;241;28354;-73
2024/02/16 10:09:26;;;;;;;4.87;2.80;;;13.00;99.90;;;;;;493958;241;28632;-73
2024/02/16 10:11:30;;;;;;;3.70;2.50;;;13.00;99.90;;;;;;493932;241;28656;-72
2024/02/16 10:13:31;;;;;;;4.70;2.73;;;13.00;99.90;;;;;;493910;241;28327;-73
2024/02/16 10:15:32;;;;;;;6.00;3.07;;;13.10;99.90;;;;;;493938;241;28670;-73
2024/02/16 10:17:33;;;;;;;6.23;2.37;;;13.20;99.90;;;;;;493935;241;28767;-74
2024/02/16 10:19:41;;;;;;;6.23;2.73;;;13.20;99.90;;;;;;493966;241;28718;-73
2024/02/16 10:21:43;;;;;;;6.10;2.57;;;;;;;;;;493908;241;28337;-73
2024/02/16 10:23:45;;;;;;;4.00;2.40;;;13.10;99.90;;;;;;493969;237;27078;-73
2024/02/16 10:25:46;;;;;;;4.10;3.13;;;13.10;99.90;;;;;;493840;237;28323;-74
2024/02/16 10:27:47;;;;;;;4.47;2.70;;;13.10;99.90;;;;;;493902;241;28793;-73
2024/02/16 10:29:51;;;;;;;5.33;3.00;;;13.00;99.90;;;;;;493961;241;28225;-73
2024/02/16 10:31:52;;;;;;;5.60;2.40;;;13.00;99.90;;;;;;493993;241;28311;-73